Time;durP1;ratioP1;P1;durP2;ratioP2;P2;SDS_P1;SDS_P2;PMS_P1;PMS_P2;Temp;Humidity;BMP_temperature;BMP_pressure;BME280_temperature;BME280_humidity;BME280_pressure;Samples;Min_cycle;Max_cycle;Signal;HPM_P1;HPM_P2
2022/07/24 00:01:17;;;;;;;6.07;4.13;;;;;;;-143.84;82.61;44988.13;5110351;28;20512;-70
2022/07/24 00:03:44;;;;;;;4.60;3.60;;;;;;;-143.84;82.44;45007.19;5110190;28;21037;-70
2022/07/24 00:06:11;;;;;;;7.17;4.37;;;;;;;-143.84;82.29;44997.66;5110398;28;20465;-70
2022/07/24 00:08:40;;;;;;;5.20;3.40;;;;;;;-143.84;82.24;44995.75;5110495;28;20490;-70
2022/07/24 00:11:07;;;;;;;7.30;3.80;;;;;;;-143.84;82.17;44988.13;5110634;28;20447;-70
2022/07/24 00:13:35;;;;;;;4.63;4.23;;;;;;;-143.84;82.58;44999.56;5110731;28;20492;-70
2022/07/24 00:16:03;;;;;;;5.10;3.97;;;;;;;-143.84;82.66;44986.22;5111215;28;20431;-70
2022/07/24 00:18:30;;;;;;;8.20;3.40;;;;;;;-143.84;83.00;44993.84;5110996;28;20434;-70
2022/07/24 00:20:58;;;;;;;6.90;4.40;;;;;;;-143.84;83.33;45020.50;5111099;28;20439;-70
2022/07/24 00:23:25;;;;;;;9.50;4.40;;;;;;;-143.84;83.88;44999.56;5110794;28;20439;-70
2022/07/24 00:25:53;;;;;;;5.90;4.40;;;;;;;-143.84;83.88;44978.63;5110580;28;20451;-70
2022/07/24 00:28:20;;;;;;;6.30;3.73;;;;;;;-143.84;83.75;45007.19;5110092;28;20547;-70
2022/07/24 00:30:48;;;;;;;6.87;4.40;;;;;;;-143.84;83.75;45001.47;5110528;28;20945;-70
2022/07/24 00:33:17;;;;;;;5.63;4.60;;;;;;;-143.84;83.40;45012.88;5110356;28;20439;-70
2022/07/24 00:35:44;;;;;;;10.30;4.10;;;;;;;-143.84;83.11;45007.19;5110345;28;20508;-70
2022/07/24 00:38:11;;;;;;;9.77;7.50;;;;;;;-143.84;83.86;45012.88;5110208;28;20883;-70
2022/07/24 00:40:39;;;;;;;6.07;4.80;;;;;;;-143.84;84.09;45001.47;5110112;28;21005;-70
2022/07/24 00:43:06;;;;;;;6.03;5.13;;;;;;;-143.84;83.83;45016.69;5110350;28;20944;-70
2022/07/24 00:45:33;;;;;;;6.90;6.20;;;;;;;-143.84;83.80;44999.56;5110381;28;20955;-70
2022/07/24 00:48:00;;;;;;;11.27;5.80;;;;;;;-143.84;83.84;45014.78;5110270;28;20474;-70
2022/07/24 00:50:29;;;;;;;14.73;5.30;;;;;;;-143.84;84.52;45024.31;5110086;28;20964;-70
2022/07/24 00:52:57;;;;;;;10.67;6.33;;;;;;;-143.84;84.77;45018.59;5109966;28;20434;-70
2022/07/24 00:55:25;;;;;;;11.20;4.80;;;;;;;-143.84;85.18;44995.75;5110177;28;20440;-70
2022/07/24 00:57:52;;;;;;;7.57;5.80;;;;;;;-143.84;85.14;44999.56;5109328;28;20431;-70
2022/07/24 01:00:21;;;;;;;7.67;6.03;;;;;;;-143.84;84.56;44991.94;5109410;28;20486;-70
2022/07/24 01:02:49;;;;;;;23.03;12.43;;;;;;;-143.84;83.24;45035.75;5109890;28;20443;-70
2022/07/24 01:05:18;;;;;;;13.57;7.37;;;;;;;-143.84;81.87;45001.47;5109877;28;20442;-70
2022/07/24 01:07:46;;;;;;;12.30;8.00;;;;;;;-143.84;81.23;45003.38;5109643;28;20475;-70
2022/07/24 01:10:14;;;;;;;8.53;5.37;;;;;;;-143.84;79.96;44997.66;5109993;28;20447;-70
2022/07/24 01:12:42;;;;;;;10.60;7.63;;;;;;;-143.84;79.33;45001.47;5109922;28;20496;-70
2022/07/24 01:15:11;;;;;;;12.37;5.93;;;;;;;-143.84;79.48;45007.19;5109704;28;20432;-70
2022/07/24 01:17:41;;;;;;;15.77;8.17;;;;;;;-143.84;79.02;45007.19;5109243;28;20442;-70
2022/07/24 01:20:11;;;;;;;18.30;6.60;;;;;;;-143.84;78.26;45012.88;5109022;28;20447;-70
2022/07/24 01:22:39;;;;;;;7.43;5.90;;;;;;;-143.84;78.09;45007.19;5109394;28;20933;-70
2022/07/24 01:25:07;;;;;;;10.90;7.73;;;;;;;-143.84;78.30;45003.38;5109430;28;20461;-70
2022/07/24 01:27:34;;;;;;;9.87;5.70;;;;;;;-143.84;78.05;45010.97;5108683;28;20555;-70
2022/07/24 01:30:01;;;;;;;10.20;5.70;;;;;;;-143.84;77.56;44993.84;5109706;28;20520;-70
2022/07/24 01:32:29;;;;;;;10.90;5.27;;;;;;;-143.84;77.12;45022.41;5109410;28;20434;-70
2022/07/24 01:34:56;;;;;;;17.03;5.67;;;;;;;-143.84;76.41;45012.88;5109263;28;20833;-70
2022/07/24 01:37:23;;;;;;;8.73;5.37;;;;;;;-143.84;75.15;45007.19;5109137;28;20972;-70
2022/07/24 01:39:51;;;;;;;10.77;4.40;;;;;;;-143.84;74.73;44988.13;5109539;28;20500;-70
2022/07/24 01:42:20;;;;;;;9.83;3.43;;;;;;;-143.84;74.39;44990.03;5109395;28;20931;-70
2022/07/24 01:44:47;;;;;;;8.23;3.87;;;;;;;-143.84;73.07;44986.22;5109257;28;20439;-70
2022/07/24 01:47:14;;;;;;;5.33;4.37;;;;;;;-143.84;71.99;44984.31;5109082;28;20443;-70
2022/07/24 01:49:42;;;;;;;7.00;4.80;;;;;;;-143.84;71.37;45007.19;5109381;28;20443;-70
2022/07/24 01:52:10;;;;;;;5.73;4.80;;;;;;;-143.84;70.07;44991.94;5109619;28;20443;-70
2022/07/24 01:54:37;;;;;;;11.47;3.70;;;;;;;-143.84;67.05;44984.31;5109442;28;20438;-70
2022/07/24 01:57:05;;;;;;;6.90;3.73;;;;;;;-143.84;65.13;44984.31;5109086;28;20434;-70
2022/07/24 01:59:32;;;;;;;8.23;3.90;;;;;;;-143.84;62.26;44993.84;5109211;28;20514;-70
2022/07/24 02:02:00;;;;;;;7.60;3.73;;;;;;;-143.84;60.22;45012.88;5108824;28;20474;-70
2022/07/24 02:04:27;;;;;;;4.73;3.37;;;;;;;-143.84;58.79;45007.19;5109364;28;20859;-70
2022/07/24 02:06:54;;;;;;;6.13;3.77;;;;;;;-143.84;57.55;45005.28;5108818;28;20439;-70
2022/07/24 02:09:21;;;;;;;5.90;3.00;;;;;;;-143.84;56.92;45005.28;5109419;28;20507;-70
2022/07/24 02:11:48;;;;;;;7.13;3.37;;;;;;;-143.84;56.91;44993.84;5113395;28;20435;-70
2022/07/24 02:14:17;;;;;;;4.30;3.60;;;;;;;-143.84;57.10;44984.31;5113397;28;20431;-70
2022/07/24 02:16:44;;;;;;;8.53;3.03;;;;;;;-143.84;55.75;44993.84;5113060;28;20442;-70
2022/07/24 02:19:11;;;;;;;3.43;3.23;;;;;;;-143.84;55.58;44995.75;5113163;28;20435;-70
2022/07/24 02:21:38;;;;;;;5.80;3.80;;;;;;;-143.84;55.16;44976.72;5112904;28;20996;-70
2022/07/24 02:24:06;;;;;;;4.07;3.77;;;;;;;-143.84;55.26;45003.38;5112938;28;20431;-70
2022/07/24 02:26:33;;;;;;;5.63;3.30;;;;;;;-143.84;54.59;45010.97;5112766;28;20451;-70
2022/07/24 02:29:00;;;;;;;9.27;3.90;;;;;;;-143.84;54.54;44988.13;5113031;28;20482;-70
2022/07/24 02:31:29;;;;;;;3.57;3.23;;;;;;;-143.84;53.18;45009.09;5113094;28;20495;-70
2022/07/24 02:33:56;;;;;;;3.80;3.50;;;;;;;-143.84;53.16;45005.28;5112612;28;20847;-70
2022/07/24 02:36:23;;;;;;;2.97;2.70;;;;;;;-143.84;52.03;44986.22;5112635;28;20439;-70
2022/07/24 02:38:51;;;;;;;3.93;3.47;;;;;;;-143.84;51.39;45005.28;5112925;28;20442;-70
2022/07/24 02:41:18;;;;;;;4.07;3.77;;;;;;;-143.84;50.84;45022.41;5112757;28;20434;-70
2022/07/24 02:43:45;;;;;;;7.00;2.90;;;;;;;-143.84;50.36;45003.38;5113051;28;21251;-70
2022/07/24 02:46:12;;;;;;;3.30;3.10;;;;;;;-143.84;50.28;45007.19;5112868;28;20454;-70
2022/07/24 02:48:41;;;;;;;4.43;3.10;;;;;;;-143.84;49.72;44997.66;5112646;28;21163;-70
2022/07/24 02:51:08;;;;;;;11.17;3.43;;;;;;;-143.84;50.16;45005.28;5112576;28;20439;-70
2022/07/24 02:53:35;;;;;;;3.83;3.53;;;;;;;-143.84;49.99;44971.00;5112321;28;20430;-70
2022/07/24 02:56:02;;;;;;;14.10;3.90;;;;;;;-143.84;49.58;44984.31;5112433;28;20531;-70
2022/07/24 02:58:29;;;;;;;3.03;2.83;;;;;;;-143.84;49.73;44988.13;5112370;28;20453;-70
2022/07/24 03:00:57;;;;;;;10.17;3.10;;;;;;;-143.84;49.28;44995.75;5111640;28;20466;-69
2022/07/24 03:03:24;;;;;;;7.00;3.30;;;;;;;-143.84;49.85;44993.84;5111949;28;20505;-69
2022/07/24 03:05:52;;;;;;;3.83;3.53;;;;;;;-143.84;50.11;44984.31;5112114;28;20439;-70
2022/07/24 03:08:20;;;;;;;3.60;3.40;;;;;;;-143.84;50.23;45005.28;5112040;28;21054;-70
2022/07/24 03:10:47;;;;;;;4.20;3.27;;;;;;;-143.84;49.71;44991.94;5112026;28;20442;-70
2022/07/24 03:13:15;;;;;;;4.57;3.60;;;;;;;-143.84;50.28;44991.94;5111889;28;20435;-70
2022/07/24 03:15:42;;;;;;;5.77;3.60;;;;;;;-143.84;49.94;45001.47;5112092;28;20439;-70
2022/07/24 03:18:09;;;;;;;3.53;3.10;;;;;;;-143.84;49.76;44978.63;5112011;28;20447;-70
2022/07/24 03:20:37;;;;;;;6.70;3.60;;;;;;;-143.84;48.93;44991.94;5111811;28;20434;-70
2022/07/24 03:23:05;;;;;;;13.40;3.80;;;;;;;-143.84;48.42;44990.03;5111306;28;20435;-70
2022/07/24 03:25:32;;;;;;;7.53;3.23;;;;;;;-143.84;49.46;44974.81;5112011;28;20862;-70
2022/07/24 03:27:59;;;;;;;3.30;3.00;;;;;;;-143.84;51.19;44972.91;5111807;28;20470;-70
2022/07/24 03:30:26;;;;;;;8.20;3.47;;;;;;;-143.84;54.99;44984.31;5111977;28;20787;-70
2022/07/24 03:32:54;;;;;;;5.20;3.57;;;;;;;-143.84;57.30;44982.41;5111825;28;20488;-70
2022/07/24 03:35:21;;;;;;;6.10;3.50;;;;;;;-143.84;58.28;45007.19;5111752;28;20445;-70
2022/07/24 03:37:48;;;;;;;10.03;4.03;;;;;;;-143.84;59.01;44993.84;5111628;28;20461;-70
2022/07/24 03:40:17;;;;;;;12.83;4.00;;;;;;;-143.84;59.46;44986.22;5111804;28;20435;-70
2022/07/24 03:42:44;;;;;;;8.47;3.43;;;;;;;-143.84;58.93;44990.03;5111527;28;20455;-70
2022/07/24 03:45:11;;;;;;;3.90;3.60;;;;;;;-143.84;58.56;44982.41;5111667;28;20865;-70
2022/07/24 03:47:38;;;;;;;5.60;3.57;;;;;;;-143.84;62.45;44986.22;5111148;28;20435;-70
2022/07/24 03:50:06;;;;;;;6.20;4.30;;;;;;;-143.84;64.63;44948.16;5111337;28;20448;-70
2022/07/24 03:52:33;;;;;;;9.37;3.53;;;;;;;-143.84;64.05;44978.63;5111560;28;20443;-70
2022/07/24 03:55:00;;;;;;;3.43;3.23;;;;;;;-143.84;62.12;44967.19;5111516;28;20913;-70
2022/07/24 03:57:29;;;;;;;4.60;4.13;;;;;;;-143.84;60.67;44951.97;5111115;28;20439;-70
2022/07/24 03:59:56;;;;;;;7.73;4.03;;;;;;;-143.84;58.55;44915.78;5110749;28;20465;-70
2022/07/24 04:02:23;;;;;;;9.70;3.60;;;;;;;-143.84;56.53;44955.75;5110861;28;20443;-70
2022/07/24 04:04:51;;;;;;;5.83;3.93;;;;;;;-143.84;57.13;44919.59;5111402;28;20434;-70
2022/07/24 04:07:18;;;;;;;6.50;4.07;;;;;;;-143.84;55.63;44923.41;5110871;28;20435;-70
2022/07/24 04:09:45;;;;;;;5.33;3.70;;;;;;;-143.84;55.46;44902.44;5110428;28;20823;-70
2022/07/24 04:12:13;;;;;;;8.57;4.00;;;;;;;-143.84;55.57;44871.97;5110330;28;20447;-70
2022/07/24 04:14:41;;;;;;;7.10;3.67;;;;;;;-143.84;57.03;44900.53;5110601;28;20443;-71
2022/07/24 04:17:08;;;;;;;5.43;3.73;;;;;;;-143.84;57.52;44900.53;5110569;28;20451;-71
2022/07/24 04:19:36;;;;;;;5.13;3.83;;;;;;;-143.84;58.42;44868.19;5110180;28;20836;-71
2022/07/24 04:22:03;;;;;;;3.90;3.60;;;;;;;-143.84;58.04;44864.38;5110341;28;20447;-71
2022/07/24 04:24:30;;;;;;;4.73;4.20;;;;;;;-143.84;58.20;44891.03;5110829;28;20432;-71
2022/07/24 04:26:57;;;;;;;5.00;3.50;;;;;;;-143.84;57.93;44873.88;5110635;28;20439;-71
2022/07/24 04:29:25;;;;;;;5.10;3.40;;;;;;;-143.84;57.55;44866.28;5110524;28;21057;-71
2022/07/24 04:31:53;;;;;;;4.27;3.87;;;;;;;-143.84;54.99;44860.56;5110378;28;20446;-71
2022/07/24 04:34:20;;;;;;;7.70;3.53;;;;;;;-143.84;55.14;44881.50;5110502;28;20447;-71
2022/07/24 04:36:48;;;;;;;5.83;3.73;;;;;;;-143.84;53.51;44873.88;5110369;28;20439;-71
2022/07/24 04:39:16;;;;;;;9.97;3.70;;;;;;;-143.84;53.37;44856.75;5110370;28;20764;-71
2022/07/24 04:41:44;;;;;;;3.73;3.43;;;;;;;-143.84;51.75;44904.34;5110113;28;20499;-70
2022/07/24 04:44:11;;;;;;;3.63;3.10;;;;;;;-143.84;51.96;44891.03;5109693;28;20431;-71
2022/07/24 04:46:38;;;;;;;10.60;3.47;;;;;;;-143.84;51.04;44877.69;5110128;28;20431;-71
2022/07/24 04:49:07;;;;;;;4.63;3.17;;;;;;;-143.84;51.46;44873.88;5110167;28;20900;-71
2022/07/24 04:51:34;;;;;;;5.23;3.53;;;;;;;-143.84;51.01;44894.84;5110072;28;20455;-71
2022/07/24 04:54:01;;;;;;;5.00;3.10;;;;;;;-143.84;50.64;44866.28;5110164;28;20431;-71
2022/07/24 04:56:31;;;;;;;4.80;3.80;;;;;;;-143.84;48.54;44851.03;5110102;28;20439;-71
2022/07/24 04:58:59;;;;;;;8.97;3.60;;;;;;;-143.84;49.40;44883.41;5110039;28;20439;-71
2022/07/24 05:01:26;;;;;;;4.53;3.33;;;;;;;-143.84;48.35;44841.53;5109604;28;20839;-71
2022/07/24 05:03:56;;;;;;;4.30;3.13;;;;;;;-143.84;46.63;44877.69;5109774;28;20955;-71
2022/07/24 05:06:25;;;;;;;5.63;2.60;;;;;;;-143.84;45.72;44870.09;5109750;28;20447;-71
2022/07/24 05:08:52;;;;;;;7.37;3.20;;;;;;;-143.84;46.92;44843.44;5109746;28;20479;-71
2022/07/24 05:11:19;;;;;;;3.27;3.07;;;;;;;-143.84;48.21;44849.13;5109587;28;20447;-70
2022/07/24 05:13:46;;;;;;;4.40;3.10;;;;;;;-143.84;47.98;44866.28;5109881;28;20446;-70
2022/07/24 05:16:13;;;;;;;7.83;3.13;;;;;;;-143.84;50.48;44864.38;5109807;28;20807;-70
2022/07/24 05:18:40;;;;;;;4.40;3.20;;;;;;;-143.84;50.54;44841.53;5109631;28;20450;-71
2022/07/24 05:21:08;;;;;;;10.33;3.43;;;;;;;-143.84;50.53;44877.69;5109596;28;21325;-71
2022/07/24 05:23:37;;;;;;;5.07;3.73;;;;;;;-143.84;50.28;44832.00;5109399;28;20431;-71
2022/07/24 05:26:04;;;;;;;5.83;3.60;;;;;;;-143.84;50.22;44835.81;5109458;28;20439;-71
2022/07/24 05:28:32;;;;;;;6.37;3.60;;;;;;;-143.84;45.44;44860.56;5109271;28;20524;-71
2022/07/24 05:30:59;;;;;;;9.90;2.90;;;;;;;-143.84;43.45;44866.28;5109400;28;20431;-71
2022/07/24 05:33:27;;;;;;;3.80;3.20;;;;;;;-143.84;40.83;44852.94;5109543;28;20439;-71
2022/07/24 05:35:54;;;;;;;12.80;3.80;;;;;;;-143.84;42.71;44854.84;5109442;28;20443;-71
2022/07/24 05:38:21;;;;;;;7.30;3.60;;;;;;;-143.84;41.92;44858.66;5109291;28;20989;-71
2022/07/24 05:40:49;;;;;;;4.93;3.17;;;;;;;-143.84;44.03;44835.81;5109289;28;20511;-71
2022/07/24 05:43:17;;;;;;;9.77;3.77;;;;;;;-143.84;45.28;44858.66;5109292;28;20515;-71
2022/07/24 05:45:45;;;;;;;5.57;3.40;;;;;;;-143.84;43.37;44835.81;5108471;28;20447;-71
2022/07/24 05:48:12;;;;;;;4.90;3.20;;;;;;;-143.84;43.73;44839.63;5109033;28;20442;-71
2022/07/24 05:50:39;;;;;;;3.80;3.37;;;;;;;-143.84;43.19;44847.22;5109219;28;21308;-71
2022/07/24 05:53:06;;;;;;;4.03;3.20;;;;;;;-143.84;43.41;44864.38;5109332;28;20508;-71
2022/07/24 05:55:33;;;;;;;11.83;3.00;;;;;;;-143.84;43.87;44828.19;5109344;28;20439;-71
2022/07/24 05:58:02;;;;;;;2.90;2.63;;;;;;;-143.84;43.04;44835.81;5109362;28;21437;-71
2022/07/24 06:00:30;;;;;;;8.33;3.47;;;;;;;-143.84;41.43;44793.91;5108876;28;20474;-71
2022/07/24 06:02:57;;;;;;;4.13;2.90;;;;;;;-143.84;40.66;44854.84;5109266;28;20439;-71
2022/07/24 06:05:24;;;;;;;3.07;2.83;;;;;;;-143.84;41.67;44822.47;5109020;28;20447;-71
2022/07/24 06:07:51;;;;;;;2.90;2.60;;;;;;;-143.84;39.63;44832.00;5109387;28;21002;-71
2022/07/24 06:10:19;;;;;;;7.27;3.50;;;;;;;-143.84;40.48;44835.81;5108979;28;20470;-71
2022/07/24 06:12:46;;;;;;;4.37;3.30;;;;;;;-143.84;40.97;44830.09;5108849;28;20499;-71
2022/07/24 06:15:14;;;;;;;4.97;3.33;;;;;;;-143.84;40.00;44847.22;5109040;28;20579;-71
2022/07/24 06:17:42;;;;;;;2.70;2.50;;;;;;;-143.84;38.18;44832.00;5108927;28;20956;-71
2022/07/24 06:20:13;;;;;;;3.10;2.90;;;;;;;-143.84;39.57;44839.63;5108837;28;20446;-71
2022/07/24 06:22:40;;;;;;;6.67;3.17;;;;;;;-143.84;39.40;44828.19;5108843;28;20442;-71
2022/07/24 06:25:08;;;;;;;5.47;2.90;;;;;;;-143.84;39.23;44858.66;5108112;28;20443;-71
2022/07/24 06:27:41;;;;;;;13.00;2.63;;;;;;;-143.84;36.47;44828.19;5108527;28;20977;-71
2022/07/24 06:30:13;;;;;;;7.43;2.70;;;;;;;-143.84;37.75;44843.44;5108523;28;20543;-71
2022/07/24 06:32:41;;;;;;;7.23;2.87;;;;;;;-143.84;38.65;44851.03;5108969;28;20967;-71
2022/07/24 06:35:09;;;;;;;8.57;3.00;;;;;;;-143.84;39.04;44822.47;5108706;28;20447;-71
2022/07/24 06:37:36;;;;;;;3.50;3.00;;;;;;;-143.84;42.48;44847.22;5090896;28;20434;-71
2022/07/24 06:40:04;;;;;;;14.63;3.30;;;;;;;-143.84;42.93;44841.53;5108672;28;20447;-70
2022/07/24 06:42:32;;;;;;;6.10;3.10;;;;;;;-143.84;42.38;44809.16;5108676;28;20496;-70
2022/07/24 06:44:59;;;;;;;6.63;3.10;;;;;;;-143.84;42.68;44851.03;5108603;28;20446;-70
2022/07/24 06:47:26;;;;;;;8.83;3.10;;;;;;;-143.84;42.47;44801.53;5108834;28;20502;-70
2022/07/24 06:49:55;;;;;;;4.17;2.77;;;;;;;-143.84;42.45;44839.63;5108446;28;20474;-71
2022/07/24 06:52:23;;;;;;;3.97;2.90;;;;;;;-143.84;42.15;44837.72;5108572;28;20443;-71
2022/07/24 06:54:50;;;;;;;3.43;2.70;;;;;;;-143.84;40.29;44820.56;5108781;28;20771;-71
2022/07/24 06:57:18;;;;;;;4.70;2.47;;;;;;;-143.84;41.06;44828.19;5111798;28;20442;-71
2022/07/24 06:59:46;;;;;;;3.17;2.87;;;;;;;-143.84;40.74;44809.16;5112062;28;20522;-70
2022/07/24 07:02:14;;;;;;;3.27;2.83;;;;;;;-143.84;39.55;44841.53;5112125;28;20944;-70
2022/07/24 07:04:41;;;;;;;5.30;2.63;;;;;;;-143.84;40.21;44866.28;5112104;28;20455;-70
2022/07/24 07:07:09;;;;;;;5.10;2.80;;;;;;;-143.84;40.12;44837.72;5111943;28;20435;-70
2022/07/24 07:09:37;;;;;;;4.63;2.97;;;;;;;-143.84;37.61;44845.31;5111974;28;20466;-70
2022/07/24 07:12:05;;;;;;;9.07;3.10;;;;;;;-143.84;40.49;44839.63;5112007;28;20457;-70
2022/07/24 07:14:32;;;;;;;3.57;3.20;;;;;;;-143.84;40.31;44822.47;5094296;28;20773;-70
2022/07/24 07:17:00;;;;;;;18.43;3.10;;;;;;;-143.84;38.75;44784.41;5111389;28;20435;-70
2022/07/24 07:19:27;;;;;;;3.17;2.90;;;;;;;-143.84;38.01;44858.66;5111658;28;20454;-71
2022/07/24 07:21:55;;;;;;;3.60;2.60;;;;;;;-143.84;38.65;44805.34;5111719;28;20447;-71
2022/07/24 07:24:23;;;;;;;2.70;2.50;;;;;;;-143.84;37.38;44807.25;5111718;28;20492;-70
2022/07/24 07:26:50;;;;;;;5.57;2.40;;;;;;;-143.84;35.87;44805.34;5111841;28;20439;-70
2022/07/24 07:29:18;;;;;;;6.23;2.53;;;;;;;-143.84;36.86;44818.66;5111999;28;20513;-70
2022/07/24 07:31:45;;;;;;;5.90;3.30;;;;;;;-143.84;37.01;44826.28;5111919;28;20678;-70
2022/07/24 07:34:12;;;;;;;6.00;2.53;;;;;;;-143.84;37.84;44809.16;5111701;28;20443;-71
2022/07/24 07:36:39;;;;;;;8.83;2.93;;;;;;;-143.84;36.96;44811.06;5111609;28;20438;-70
2022/07/24 07:39:06;;;;;;;5.57;2.63;;;;;;;-143.84;35.30;44801.53;5111492;28;20439;-70
2022/07/24 07:41:35;;;;;;;3.63;2.80;;;;;;;-143.84;36.06;44824.38;5111523;28;20431;-70
2022/07/24 07:44:02;;;;;;;2.90;2.63;;;;;;;-143.84;36.32;44826.28;5111443;28;20443;-70
2022/07/24 07:46:31;;;;;;;7.33;3.47;;;;;;;-143.84;36.44;44822.47;5111650;28;20443;-70
2022/07/24 07:48:58;;;;;;;4.60;2.47;;;;;;;-143.84;37.59;44793.91;5111397;28;20439;-70
2022/07/24 07:51:25;;;;;;;2.90;2.70;;;;;;;-143.84;37.27;44832.00;5111476;28;21025;-70
2022/07/24 07:53:53;;;;;;;3.10;2.77;;;;;;;-143.84;35.51;44820.56;5111351;28;20435;-71
2022/07/24 07:56:20;;;;;;;6.07;2.90;;;;;;;-143.84;37.42;44788.22;5111295;28;20435;-71
2022/07/24 07:58:49;;;;;;;10.00;2.67;;;;;;;-143.84;36.99;44774.88;5111060;28;20499;-71
2022/07/24 08:01:17;;;;;;;6.87;3.20;;;;;;;-143.84;37.61;44795.81;5110986;28;20474;-71
2022/07/24 08:03:44;;;;;;;6.90;3.10;;;;;;;-143.84;35.08;44784.41;5111112;28;20470;-71
2022/07/24 08:06:11;;;;;;;3.20;2.83;;;;;;;-143.84;36.56;44782.50;5110822;28;20427;-71
2022/07/24 08:08:39;;;;;;;2.70;2.37;;;;;;;-143.84;34.59;44792.00;5109799;28;20442;-71
2022/07/24 08:11:07;;;;;;;8.67;3.30;;;;;;;-143.84;35.28;44765.34;5110660;28;20987;-71
2022/07/24 08:13:34;;;;;;;2.80;2.60;;;;;;;-143.84;36.56;44780.59;5110560;28;20446;-71
2022/07/24 08:16:03;;;;;;;3.37;3.00;;;;;;;-143.84;34.79;44786.31;5110354;28;20458;-70
2022/07/24 08:18:31;;;;;;;3.83;2.60;;;;;;;-143.84;37.01;44805.34;5110569;28;20458;-70
2022/07/24 08:20:58;;;;;;;9.30;2.60;;;;;;;-143.84;36.62;44772.97;5110634;28;20944;-70
2022/07/24 08:23:25;;;;;;;3.97;2.77;;;;;;;-143.84;36.33;44828.19;5110400;28;20467;-70
2022/07/24 08:25:53;;;;;;;8.23;2.90;;;;;;;-143.84;35.91;44790.13;5110518;28;20443;-70
2022/07/24 08:28:22;;;;;;;3.33;3.03;;;;;;;-143.84;34.37;44792.00;5110590;28;20865;-70
2022/07/24 08:30:50;;;;;;;2.63;2.43;;;;;;;-143.84;33.47;44803.44;5110229;28;20578;-70
2022/07/24 08:33:19;;;;;;;7.40;2.70;;;;;;;-143.84;33.97;44801.53;5110581;28;20868;-70
2022/07/24 08:35:46;;;;;;;2.87;2.67;;;;;;;-143.84;34.76;44803.44;5110536;28;20867;-70
2022/07/24 08:38:13;;;;;;;4.63;2.77;;;;;;;-143.84;34.42;44799.63;5110434;28;20431;-70
2022/07/24 08:40:41;;;;;;;9.67;2.73;;;;;;;-143.84;35.35;44805.34;5110379;28;20443;-70
2022/07/24 08:43:09;;;;;;;6.10;2.60;;;;;;;-143.84;34.14;44805.34;5110508;28;20438;-70
2022/07/24 08:45:39;;;;;;;2.83;2.53;;;;;;;-143.84;34.80;44820.56;5110111;28;20438;-70
2022/07/24 08:48:08;;;;;;;9.03;2.77;;;;;;;-143.84;33.66;44782.50;5109754;28;21098;-70
2022/07/24 08:50:39;;;;;;;4.57;2.70;;;;;;;-143.84;33.65;44807.25;5109867;28;20474;-70
2022/07/24 08:53:07;;;;;;;5.23;2.60;;;;;;;-143.84;35.08;44832.00;5114119;27;20466;-70
2022/07/24 08:55:34;;;;;;;8.37;3.20;;;;;;;-143.84;35.68;44832.00;5130550;27;20813;-70
2022/07/24 08:58:02;;;;;;;3.13;2.70;;;;;;;-143.84;36.16;44832.00;5130694;27;20426;-70
2022/07/24 09:00:31;;;;;;;4.40;3.20;;;;;;;-143.84;34.89;44828.19;5130318;27;20531;-70
2022/07/24 09:02:58;;;;;;;5.43;2.87;;;;;;;-143.84;33.46;44792.00;5130502;27;20434;-70
2022/07/24 09:05:26;;;;;;;3.03;2.80;;;;;;;-143.84;34.89;44812.97;5130348;27;20454;-70
2022/07/24 09:08:07;;;;;;;4.20;2.40;;;;;;;-143.84;35.27;44818.66;5130512;27;20518;-70
2022/07/24 09:10:34;;;;;;;6.20;2.90;;;;;;;-143.84;35.00;44816.78;5130313;27;20982;-71
2022/07/24 09:13:14;;;;;;;3.67;2.90;;;;;;;-143.84;37.44;44784.41;5130979;27;20438;-72
2022/07/24 09:15:46;;;;;;;4.87;3.00;;;;;;;-143.84;37.55;44807.25;5130908;27;21019;-72
2022/07/24 09:18:27;;;;;;;8.00;3.13;;;;;;;-143.84;37.26;44809.16;5130605;27;20974;-72
2022/07/24 09:20:55;;;;;;;9.13;3.17;;;;;;;-143.84;38.18;44784.41;5129579;27;20882;-72
2022/07/24 09:23:24;;;;;;;6.43;2.60;;;;;;;-143.84;37.24;44790.13;5130711;27;20427;-72
2022/07/24 09:25:53;;;;;;;9.80;3.40;;;;;;;-143.84;41.79;44780.59;5130847;27;20446;-72
2022/07/24 09:28:21;;;;;;;7.73;2.80;;;;;;;-143.84;40.00;44822.47;5130677;27;20535;-72
2022/07/24 09:30:49;;;;;;;3.27;2.97;;;;;;;-143.84;40.03;44763.47;5130509;27;20477;-72
2022/07/24 09:33:24;;;;;;;4.90;3.13;;;;;;;-143.84;40.04;44778.69;5130776;27;20474;-72
2022/07/24 09:35:54;;;;;;;6.50;3.40;;;;;;;-143.84;39.14;44822.47;5130151;27;20442;-72
2022/07/24 09:38:24;;;;;;;4.03;2.50;;;;;;;-143.84;37.44;44822.47;5130444;27;20469;-72
2022/07/24 09:40:54;;;;;;;3.40;3.10;;;;;;;-143.84;40.23;44824.38;5130533;27;20514;-72
2022/07/24 09:43:23;;;;;;;3.87;2.67;;;;;;;-143.84;38.63;44835.81;5130189;27;20430;-72
2022/07/24 09:45:59;;;;;;;4.87;3.20;;;;;;;-143.84;42.80;44830.09;5130528;27;20533;-72
2022/07/24 09:48:29;;;;;;;2.50;2.30;;;;;;;-143.84;40.02;44780.59;5129738;27;20506;-72
2022/07/24 09:50:58;;;;;;;3.83;2.97;;;;;;;-143.84;40.39;44858.66;5129300;28;20492;-72
2022/07/24 09:53:28;;;;;;;3.40;3.20;;;;;;;-143.84;43.38;44812.97;5130256;28;20935;-72
2022/07/24 09:56:04;;;;;;;8.80;2.90;;;;;;;-143.84;44.07;44830.09;5130270;28;20434;-72
2022/07/24 09:58:33;;;;;;;5.20;2.83;;;;;;;-143.84;46.01;44788.22;5130196;28;20455;-72
2022/07/24 10:01:01;;;;;;;7.20;3.30;;;;;;;-143.84;46.66;44816.78;5129894;28;20812;-72
2022/07/24 10:03:30;;;;;;;3.63;3.37;;;;;;;-143.84;51.83;44832.00;5130021;28;20507;-72
2022/07/24 10:05:59;;;;;;;4.80;2.90;;;;;;;-143.84;50.99;44847.22;5130307;28;20829;-72
2022/07/24 10:08:29;;;;;;;7.20;3.47;;;;;;;-143.84;53.78;44873.88;5130459;28;20489;-72
2022/07/24 10:10:57;;;;;;;5.20;3.93;;;;;;;-143.84;54.08;44856.75;5130132;28;20477;-72
2022/07/24 10:13:27;;;;;;;5.47;3.50;;;;;;;-143.84;54.49;44870.09;5130187;28;20445;-72
2022/07/24 10:16:10;;;;;;;4.23;3.80;;;;;;;-143.84;53.97;44860.56;5112303;28;20532;-72
2022/07/24 10:18:47;;;;;;;4.90;3.17;;;;;;;-143.84;54.23;44883.41;5129121;28;20437;-72
2022/07/24 10:21:17;;;;;;;6.47;3.10;;;;;;;-143.84;53.55;44854.84;5129710;28;20458;-72
2022/07/24 10:24:22;;;;;;;7.93;4.50;;;;;;;-143.84;54.63;44849.13;5129942;28;20445;-72
2022/07/24 10:26:51;;;;;;;3.57;3.37;;;;;;;-143.84;56.20;44866.28;5081508;28;20863;-72
2022/07/24 10:29:20;;;;;;;11.63;3.67;;;;;;;-143.84;55.77;44858.66;5129907;28;20459;-72
2022/07/24 10:31:50;;;;;;;3.17;2.97;;;;;;;-143.84;58.51;44858.66;5132664;27;20482;-72
2022/07/24 10:34:28;;;;;;;6.10;3.60;;;;;;;-143.84;58.46;44870.09;5133689;27;20498;-72
2022/07/24 10:37:04;;;;;;;9.67;4.33;;;;;;;-143.84;60.69;44894.84;5134356;27;20506;-72
2022/07/24 10:39:42;;;;;;;4.43;3.50;;;;;;;-143.84;59.10;44885.31;5133749;27;20438;-72
2022/07/24 10:42:09;;;;;;;6.20;3.73;;;;;;;-143.84;60.32;44892.94;5133852;27;20446;-72
2022/07/24 10:44:37;;;;;;;9.23;3.70;;;;;;;-143.84;60.48;44911.97;5133696;27;20836;-72
2022/07/24 10:47:07;;;;;;;4.50;3.07;;;;;;;-143.84;58.79;44910.06;5133836;27;20446;-72
2022/07/24 10:49:35;;;;;;;4.00;3.60;;;;;;;-143.84;57.99;44896.75;5133951;27;20491;-72
2022/07/24 10:52:03;;;;;;;4.40;3.10;;;;;;;-143.84;61.79;44900.53;5133709;27;21122;-72
2022/07/24 10:54:30;;;;;;;9.23;4.20;;;;;;;-143.84;65.66;44902.44;5133564;27;20469;-72
2022/07/24 10:56:59;;;;;;;6.10;3.67;;;;;;;-143.84;65.70;44889.13;5133494;27;20441;-72
2022/07/24 10:59:34;;;;;;;4.20;3.60;;;;;;;-143.84;64.08;44887.22;5133514;27;20446;-72
2022/07/24 11:02:27;;;;;;;5.97;3.73;;;;;;;-143.84;65.47;44898.66;5133360;27;20474;-72
2022/07/24 11:05:30;;;;;;;8.00;3.30;;;;;;;-143.84;64.81;44913.88;5133573;27;20432;-72
2022/07/24 11:08:39;;;;;;;7.00;3.33;;;;;;;-143.84;65.50;44906.25;5049609;28;20449;-72
2022/07/24 11:11:11;;;;;;;4.67;4.20;;;;;;;-143.84;66.75;44921.50;5049452;28;20492;-72
2022/07/24 11:13:45;;;;;;;5.93;3.37;;;;;;;-143.84;67.66;44915.78;5115288;27;20434;-72
2022/07/24 11:16:21;;;;;;;5.00;3.87;;;;;;;-143.84;67.69;44894.84;5133237;27;20942;-72
2022/07/24 11:19:33;;;;;;;4.60;3.53;;;;;;;-143.84;67.12;44929.09;5133131;27;20437;-72
2022/07/24 11:22:18;;;;;;;8.17;3.53;;;;;;;-143.84;68.93;44927.19;5084417;27;20442;-72
2022/07/24 11:25:08;;;;;;;6.30;3.57;;;;;;;-143.84;70.40;44887.22;5133313;27;20438;-72